CYZR

Sarnia Chris Hadfield Airport

Sarnia, , Canada
METAR CYZR 241400Z AUTO 36006KT 2SM -RA BR OVC002 16/16 A2984 RMK LTNG DIST SE SLP105 DENSITY ALT 900FT
Observed Flight Rules
Jun-24 @ 14:00 UTC (an hour ago) Instrument Flight Rules
Wind Visibility Clouds Conditions
360° at 6 knots 2 miles
  • Overcast at 200' AGL
  • Light Rain
  • Mist
Temperatures Readings
Current 16°C / 61°F
Dewpoint 16°C / 61°F
Humidity 100%
Altimeter 29.84" Hg
Pressure 1010.5 hPa
Elevation 181
METAR CYZR 241400Z AUTO 36006KT 2SM -RA BR OVC002 16/16 A2984 RMK LTNG DIST SE SLP105 DENSITY ALT 900FT
Observed Flight Rules
Jun-24 @ 14:00 UTC
(an hour ago)
LIFR
Wind Visibility
360° at 6 knots 2 miles
Clouds
  • Overcast at 200' AGL
Conditions
  • Light Rain
  • Mist
Temperature Dewpoint
16°C / 61°F 16°C / 61°F
Humidity Altimeter Pressure
100% 29.84" Hg 1010.5 hPa